DTNH

Details ICAO DTNH
Name Enfidha-Hammamet
Region Tunisia
Timezone Africa/Tunis (UTC+1.0)
Plans Departing 16
Arriving 46
Stats Elevation 21 ft / 6 m (AMSL)
Location 36.075732° 10.438603°
Runways 1
Magnetic Variation 2.398° E
Sunrise 2017-12-13 06:21:46 UTC / 2017-12-13 07:21:46 Local
Sunset 2017-12-13 16:05:56 UTC / 2017-12-13 17:05:56 Local
Advertisement - Login to hide

Runways

ID Width Length Bearing (true) Bearing (mag) Surface Threshold Offset Overrun Length
09 197 ft / 60 m 10,805 ft / 3,293 m 90.31° 87.91° Asphalt 0 ft / 0 m 0 ft / 0 m
27 197 ft / 60 m 10,805 ft / 3,293 m 270.33° 267.93° Asphalt 0 ft / 0 m 0 ft / 0 m

Approach Navaids

Runway Type Ident Frequency Range Bearing (true) Bearing (mag) Slope Elevation
27 Localiser EBI 108.10 MHz 18 nm / 33 km 269.30° 266.90° - 19 ft / 6 m (AMSL)
27 Glidescope EBI 108.10 MHz 10 nm / 19 km 269.30° 266.90° 3.00° 19 ft / 6 m (AMSL)
27 DME EBI 108.10 MHz 18 nm / 33 km - - - 19 ft / 6 m (AMSL)

Map

Weather


0- 5 10 15 20 25 30 35+ Temperature / ° C

Clouds and Precipitation
Forecast for 2017-12-13 00:00 UTC. Updated 10 minutes ago

Ground ~20,000 ft ~40,000 ft Winds

METAR

DTNH 122330Z 28003KT 220V350 CAVOK 10/02 Q1019 NOSIG

TAF

TAF DTNH 121710Z 1218/1318 19008KT CAVOK

Frequencies

Recorded 136.30 MHz ATIS ENFIDHA
Tower 118.55 MHz ENFIDHA TWR
Ground 121.67 MHz ENFIDHA GND
Approach 119.30 MHz ENFIDHA APP
Warning: Do not use this data for real-world aviation or navigation. No guarantee of current accuracy is given.